Check out our new PWSWeather beta!
PWSweather.com
Personal Weather Stations
Station Observations
PICKERING
North Yorkshire, PickeringGB

North YorkshirePickeringGB

Lat: 54.2494, Lon: -0.7725

Elevation: 192

Station Type: Oregon Scientific WMR100

High Low Average
Temperature 70.9°F21.6°C 59.7°F15.4°C 64.2°F17.9°C
Dew Point 62.6°F17.0°C 57.2°F14.0°C 59.4°F15.2°C
Winds 8.9 mph 14.3 kmh 2.0 mph 3.2 kmh 5.0 mph W8.0 kmh W
Wind Gusts 16.1 mph25.9 kmh 3.1 mph5.0 kmh 8.0 mph12.9 kmh
Humidity 91% 76% 84%
Pressure 30.09 in1019.0 mb 29.89 in1012.2 mb -
Precipitation 0.11 in2.8 mm - -
Hour Temp Dew Point Humidity Winds Wind Gusts Pressure Precip Precip Rate Daily Precip Total
12:00 AM 61.2°F16.2°C 59.0°F15.0°C 89% 4.0 mph NW6.4 kmh NW 7.8 mph12.6 kmh 29.89 in1012.2 mb 0.11 in2.8 mm 0.00 in0.0 mm 0.11 in2.8 mm
12:05 AM 61.0°F16.1°C 57.2°F14.0°C 89% 3.5 mph N5.6 kmh N 6.5 mph10.5 kmh 29.89 in1012.2 mb 0.11 in2.8 mm 0.00 in0.0 mm 0.11 in2.8 mm
12:10 AM 61.0°F16.1°C 57.2°F14.0°C 89% 3.3 mph N5.3 kmh N 6.5 mph10.5 kmh 29.89 in1012.2 mb 0.11 in2.8 mm 0.00 in0.0 mm 0.11 in2.8 mm
12:15 AM 61.0°F16.1°C 57.2°F14.0°C 89% 2.9 mph NNW4.7 kmh NNW 6.5 mph10.5 kmh 29.89 in1012.2 mb 0.11 in2.8 mm 0.00 in0.0 mm 0.11 in2.8 mm
12:20 AM 60.8°F16.0°C 57.2°F14.0°C 89% 2.7 mph NNW4.3 kmh NNW 5.8 mph9.3 kmh 29.89 in1012.2 mb 0.11 in2.8 mm 0.00 in0.0 mm 0.11 in2.8 mm
12:25 AM 60.8°F16.0°C 57.2°F14.0°C 89% 3.6 mph N5.8 kmh N 6.5 mph10.5 kmh 29.89 in1012.2 mb 0.11 in2.8 mm 0.00 in0.0 mm 0.11 in2.8 mm
12:30 AM 60.6°F15.9°C 57.2°F14.0°C 89% 3.8 mph NNE6.1 kmh NNE 6.5 mph10.5 kmh 29.89 in1012.2 mb 0.11 in2.8 mm 0.00 in0.0 mm 0.11 in2.8 mm
12:35 AM 60.6°F15.9°C 57.2°F14.0°C 89% 3.4 mph N5.5 kmh N 5.4 mph8.7 kmh 29.89 in1012.2 mb 0.11 in2.8 mm 0.00 in0.0 mm 0.11 in2.8 mm
12:40 AM 60.4°F15.8°C 57.2°F14.0°C 89% 3.2 mph NNW5.1 kmh NNW 4.9 mph7.9 kmh 29.89 in1012.2 mb 0.06 in1.5 mm 0.00 in0.0 mm 0.11 in2.8 mm
12:45 AM 60.4°F15.8°C 57.2°F14.0°C 89% 3.0 mph NNW4.8 kmh NNW 4.9 mph7.9 kmh 29.89 in1012.2 mb 0.00 in0.0 mm 0.00 in0.0 mm 0.11 in2.8 mm
12:50 AM 60.4°F15.8°C 57.2°F14.0°C 90% 3.2 mph NNW5.1 kmh NNW 5.6 mph9.0 kmh 29.89 in1012.2 mb 0.00 in0.0 mm 0.00 in0.0 mm 0.11 in2.8 mm
12:55 AM 60.4°F15.8°C 57.2°F14.0°C 89% 3.3 mph NNW5.3 kmh NNW 5.6 mph9.0 kmh 29.89 in1012.2 mb 0.00 in0.0 mm 0.00 in0.0 mm 0.11 in2.8 mm
01:00 AM 60.6°F15.9°C 57.2°F14.0°C 90% 3.7 mph N6.0 kmh N 6.5 mph10.5 kmh 29.89 in1012.2 mb 0.00 in0.0 mm 0.00 in0.0 mm 0.11 in2.8 mm
01:05 AM 60.6°F15.9°C 57.2°F14.0°C 90% 3.5 mph N5.6 kmh N 6.5 mph10.5 kmh 29.92 in1013.2 mb 0.00 in0.0 mm 0.00 in0.0 mm 0.11 in2.8 mm
01:10 AM 60.4°F15.8°C 57.2°F14.0°C 90% 3.2 mph NNW5.1 kmh NNW 5.6 mph9.0 kmh 29.92 in1013.2 mb 0.00 in0.0 mm 0.00 in0.0 mm 0.11 in2.8 mm
01:15 AM 60.4°F15.8°C 57.2°F14.0°C 90% 2.9 mph NNW4.7 kmh NNW 5.6 mph9.0 kmh 29.92 in1013.2 mb 0.00 in0.0 mm 0.00 in0.0 mm 0.11 in2.8 mm
01:20 AM 60.4°F15.8°C 57.2°F14.0°C 90% 2.4 mph N3.9 kmh N 3.8 mph6.1 kmh 29.89 in1012.2 mb 0.00 in0.0 mm 0.00 in0.0 mm 0.11 in2.8 mm
01:25 AM 60.6°F15.9°C 57.2°F14.0°C 90% 2.8 mph N4.5 kmh N 6.5 mph10.5 kmh 29.89 in1012.2 mb 0.00 in0.0 mm 0.00 in0.0 mm 0.11 in2.8 mm
01:30 AM 60.6°F15.9°C 57.2°F14.0°C 90% 2.6 mph N4.2 kmh N 6.5 mph10.5 kmh 29.89 in1012.2 mb 0.00 in0.0 mm 0.00 in0.0 mm 0.11 in2.8 mm
01:35 AM 60.6°F15.9°C 57.2°F14.0°C 90% 2.7 mph NNW4.3 kmh NNW 5.4 mph8.7 kmh 29.92 in1013.2 mb 0.00 in0.0 mm 0.00 in0.0 mm 0.11 in2.8 mm
01:40 AM 60.6°F15.9°C 57.2°F14.0°C 90% 2.5 mph NNW4.0 kmh NNW 5.4 mph8.7 kmh 29.92 in1013.2 mb 0.00 in0.0 mm 0.00 in0.0 mm 0.11 in2.8 mm
01:45 AM 60.6°F15.9°C 57.2°F14.0°C 90% 2.3 mph N3.7 kmh N 4.0 mph6.4 kmh 29.92 in1013.2 mb 0.00 in0.0 mm 0.00 in0.0 mm 0.11 in2.8 mm
01:50 AM 60.6°F15.9°C 57.2°F14.0°C 90% 3.0 mph NNW4.8 kmh NNW 4.9 mph7.9 kmh 29.92 in1013.2 mb 0.00 in0.0 mm 0.00 in0.0 mm 0.11 in2.8 mm
01:55 AM 60.4°F15.8°C 57.2°F14.0°C 90% 2.9 mph NNW4.7 kmh NNW 4.9 mph7.9 kmh 29.92 in1013.2 mb 0.00 in0.0 mm 0.00 in0.0 mm 0.11 in2.8 mm
02:00 AM 60.4°F15.8°C 57.2°F14.0°C 90% 2.6 mph N4.2 kmh N 3.8 mph6.1 kmh 29.92 in1013.2 mb 0.00 in0.0 mm 0.00 in0.0 mm 0.11 in2.8 mm
02:05 AM 60.4°F15.8°C 57.2°F14.0°C 90% 3.8 mph NNW6.1 kmh NNW 8.1 mph13.0 kmh 29.92 in1013.2 mb 0.00 in0.0 mm 0.00 in0.0 mm 0.11 in2.8 mm
02:10 AM 60.4°F15.8°C 57.2°F14.0°C 90% 3.8 mph NW6.1 kmh NW 8.1 mph13.0 kmh 29.92 in1013.2 mb 0.00 in0.0 mm 0.00 in0.0 mm 0.11 in2.8 mm
02:15 AM 60.4°F15.8°C 57.2°F14.0°C 90% 3.4 mph NW5.5 kmh NW 6.5 mph10.5 kmh 29.92 in1013.2 mb 0.00 in0.0 mm 0.00 in0.0 mm 0.11 in2.8 mm
02:20 AM 60.3°F15.7°C 57.2°F14.0°C 90% 3.1 mph NW5.0 kmh NW 6.5 mph10.5 kmh 29.92 in1013.2 mb 0.00 in0.0 mm 0.00 in0.0 mm 0.11 in2.8 mm
02:25 AM 60.3°F15.7°C 57.2°F14.0°C 90% 4.1 mph NNW6.6 kmh NNW 7.6 mph12.2 kmh 29.92 in1013.2 mb 0.00 in0.0 mm 0.00 in0.0 mm 0.11 in2.8 mm
02:30 AM 60.3°F15.7°C 57.2°F14.0°C 90% 4.2 mph N6.8 kmh N 7.6 mph12.2 kmh 29.92 in1013.2 mb 0.00 in0.0 mm 0.00 in0.0 mm 0.11 in2.8 mm
02:35 AM 60.3°F15.7°C 57.2°F14.0°C 90% 4.0 mph N6.4 kmh N 6.5 mph10.5 kmh 29.92 in1013.2 mb 0.00 in0.0 mm 0.00 in0.0 mm 0.11 in2.8 mm
02:40 AM 60.4°F15.8°C 57.2°F14.0°C 90% 4.1 mph N6.6 kmh N 6.5 mph10.5 kmh 29.92 in1013.2 mb 0.00 in0.0 mm 0.00 in0.0 mm 0.11 in2.8 mm
02:45 AM 60.3°F15.7°C 57.2°F14.0°C 90% 3.6 mph NNW5.8 kmh NNW 7.4 mph11.9 kmh 29.92 in1013.2 mb 0.00 in0.0 mm 0.00 in0.0 mm 0.11 in2.8 mm
02:50 AM 60.4°F15.8°C 57.2°F14.0°C 90% 3.1 mph NW5.0 kmh NW 7.4 mph11.9 kmh 29.92 in1013.2 mb 0.00 in0.0 mm 0.00 in0.0 mm 0.11 in2.8 mm
02:55 AM 60.3°F15.7°C 57.2°F14.0°C 90% 2.7 mph NNW4.3 kmh NNW 4.3 mph6.9 kmh 29.92 in1013.2 mb 0.00 in0.0 mm 0.00 in0.0 mm 0.11 in2.8 mm
03:00 AM 60.4°F15.8°C 57.2°F14.0°C 90% 2.6 mph NNW4.2 kmh NNW 4.3 mph6.9 kmh 29.92 in1013.2 mb 0.00 in0.0 mm 0.00 in0.0 mm 0.11 in2.8 mm
03:05 AM 60.4°F15.8°C 57.2°F14.0°C 90% 3.1 mph NW5.0 kmh NW 6.0 mph9.7 kmh 29.92 in1013.2 mb 0.00 in0.0 mm 0.00 in0.0 mm 0.11 in2.8 mm
03:10 AM 60.6°F15.9°C 57.2°F14.0°C 90% 3.4 mph NW5.5 kmh NW 6.0 mph9.7 kmh 29.92 in1013.2 mb 0.00 in0.0 mm 0.00 in0.0 mm 0.11 in2.8 mm
03:15 AM 60.6°F15.9°C 57.2°F14.0°C 90% 3.4 mph NW5.5 kmh NW 7.2 mph11.6 kmh 29.92 in1013.2 mb 0.00 in0.0 mm 0.00 in0.0 mm 0.11 in2.8 mm
03:20 AM 60.6°F15.9°C 57.2°F14.0°C 90% 3.7 mph NNW6.0 kmh NNW 7.2 mph11.6 kmh 29.92 in1013.2 mb 0.00 in0.0 mm 0.00 in0.0 mm 0.11 in2.8 mm
03:25 AM 60.6°F15.9°C 57.2°F14.0°C 90% 3.3 mph NNW5.3 kmh NNW 5.8 mph9.3 kmh 29.92 in1013.2 mb 0.00 in0.0 mm 0.00 in0.0 mm 0.11 in2.8 mm
03:30 AM 60.6°F15.9°C 57.2°F14.0°C 90% 3.0 mph N4.8 kmh N 4.9 mph7.9 kmh 29.92 in1013.2 mb 0.00 in0.0 mm 0.00 in0.0 mm 0.11 in2.8 mm
03:35 AM 60.6°F15.9°C 57.2°F14.0°C 90% 2.6 mph N4.2 kmh N 4.9 mph7.9 kmh 29.92 in1013.2 mb 0.00 in0.0 mm 0.00 in0.0 mm 0.11 in2.8 mm
03:40 AM 60.4°F15.8°C 57.2°F14.0°C 90% 3.0 mph NNW4.8 kmh NNW 4.3 mph6.9 kmh 29.92 in1013.2 mb 0.00 in0.0 mm 0.00 in0.0 mm 0.11 in2.8 mm
03:45 AM 60.4°F15.8°C 57.2°F14.0°C 90% 3.5 mph NNW5.6 kmh NNW 6.0 mph9.7 kmh 29.92 in1013.2 mb 0.00 in0.0 mm 0.00 in0.0 mm 0.11 in2.8 mm
03:50 AM 60.3°F15.7°C 57.2°F14.0°C 90% 3.6 mph NNW5.8 kmh NNW 6.0 mph9.7 kmh 29.92 in1013.2 mb 0.00 in0.0 mm 0.00 in0.0 mm 0.11 in2.8 mm
03:55 AM 60.1°F15.6°C 57.2°F14.0°C 90% 3.8 mph NNW6.1 kmh NNW 6.5 mph10.5 kmh 29.92 in1013.2 mb 0.00 in0.0 mm 0.00 in0.0 mm 0.11 in2.8 mm
04:00 AM 60.1°F15.6°C 57.2°F14.0°C 90% 3.5 mph N5.6 kmh N 6.5 mph10.5 kmh 29.92 in1013.2 mb 0.00 in0.0 mm 0.00 in0.0 mm 0.11 in2.8 mm
04:05 AM 60.1°F15.6°C 57.2°F14.0°C 91% 3.6 mph N5.8 kmh N 7.4 mph11.9 kmh 29.92 in1013.2 mb 0.00 in0.0 mm 0.00 in0.0 mm 0.11 in2.8 mm
04:10 AM 60.1°F15.6°C 57.2°F14.0°C 90% 3.6 mph N5.8 kmh N 8.1 mph13.0 kmh 29.92 in1013.2 mb 0.00 in0.0 mm 0.00 in0.0 mm 0.11 in2.8 mm
04:15 AM 60.1°F15.6°C 57.2°F14.0°C 90% 3.4 mph NNW5.5 kmh NNW 8.7 mph14.0 kmh 29.92 in1013.2 mb 0.00 in0.0 mm 0.00 in0.0 mm 0.11 in2.8 mm
04:20 AM 60.1°F15.6°C 57.2°F14.0°C 91% 3.3 mph N5.3 kmh N 8.7 mph14.0 kmh 29.92 in1013.2 mb 0.00 in0.0 mm 0.00 in0.0 mm 0.11 in2.8 mm
04:25 AM 59.9°F15.5°C 57.2°F14.0°C 91% 2.8 mph N4.5 kmh N 4.9 mph7.9 kmh 29.92 in1013.2 mb 0.00 in0.0 mm 0.00 in0.0 mm 0.11 in2.8 mm
04:30 AM 59.7°F15.4°C 57.2°F14.0°C 91% 2.7 mph NNW4.3 kmh NNW 3.8 mph6.1 kmh 29.92 in1013.2 mb 0.00 in0.0 mm 0.00 in0.0 mm 0.11 in2.8 mm
04:35 AM 59.9°F15.5°C 57.2°F14.0°C 91% 3.1 mph N5.0 kmh N 4.9 mph7.9 kmh 29.92 in1013.2 mb 0.00 in0.0 mm 0.00 in0.0 mm 0.11 in2.8 mm
04:40 AM 59.9°F15.5°C 57.2°F14.0°C 91% 3.2 mph N5.1 kmh N 5.4 mph8.7 kmh 29.92 in1013.2 mb 0.00 in0.0 mm 0.00 in0.0 mm 0.11 in2.8 mm
04:45 AM 59.9°F15.5°C 57.2°F14.0°C 91% 3.5 mph NNW5.6 kmh NNW 6.5 mph10.5 kmh 29.92 in1013.2 mb 0.00 in0.0 mm 0.00 in0.0 mm 0.11 in2.8 mm
04:50 AM 60.1°F15.6°C 57.2°F14.0°C 91% 3.8 mph NNW6.1 kmh NNW 6.5 mph10.5 kmh 29.92 in1013.2 mb 0.00 in0.0 mm 0.00 in0.0 mm 0.11 in2.8 mm
04:55 AM 60.3°F15.7°C 57.2°F14.0°C 91% 3.7 mph NNW6.0 kmh NNW 6.0 mph9.7 kmh 29.92 in1013.2 mb 0.00 in0.0 mm 0.00 in0.0 mm 0.11 in2.8 mm
05:00 AM 60.3°F15.7°C 57.2°F14.0°C 91% 4.0 mph NW6.4 kmh NW 6.0 mph9.7 kmh 29.92 in1013.2 mb 0.00 in0.0 mm 0.00 in0.0 mm 0.11 in2.8 mm
05:05 AM 60.4°F15.8°C 57.2°F14.0°C 91% 4.0 mph NW6.4 kmh NW 5.4 mph8.7 kmh 29.95 in1014.2 mb 0.00 in0.0 mm 0.00 in0.0 mm 0.11 in2.8 mm
05:10 AM 60.6°F15.9°C 59.0°F15.0°C 91% 4.0 mph NNW6.4 kmh NNW 6.0 mph9.7 kmh 29.95 in1014.2 mb 0.00 in0.0 mm 0.00 in0.0 mm 0.11 in2.8 mm
05:15 AM 60.8°F16.0°C 59.0°F15.0°C 91% 4.3 mph NW6.9 kmh NW 6.0 mph9.7 kmh 29.95 in1014.2 mb 0.00 in0.0 mm 0.00 in0.0 mm 0.11 in2.8 mm
05:20 AM 60.8°F16.0°C 59.0°F15.0°C 91% 3.7 mph NNW6.0 kmh NNW 6.3 mph10.1 kmh 29.95 in1014.2 mb 0.00 in0.0 mm 0.00 in0.0 mm 0.11 in2.8 mm
05:25 AM 60.8°F16.0°C 59.0°F15.0°C 91% 3.4 mph N5.5 kmh N 6.3 mph10.1 kmh 29.95 in1014.2 mb 0.00 in0.0 mm 0.00 in0.0 mm 0.11 in2.8 mm
05:30 AM 60.8°F16.0°C 59.0°F15.0°C 91% 3.3 mph N5.3 kmh N 5.6 mph9.0 kmh 29.95 in1014.2 mb 0.00 in0.0 mm 0.00 in0.0 mm 0.11 in2.8 mm
05:35 AM 60.8°F16.0°C 59.0°F15.0°C 91% 4.1 mph N6.6 kmh N 7.8 mph12.6 kmh 29.95 in1014.2 mb 0.00 in0.0 mm 0.00 in0.0 mm 0.11 in2.8 mm
05:40 AM 60.8°F16.0°C 59.0°F15.0°C 91% 4.3 mph N6.9 kmh N 7.8 mph12.6 kmh 29.95 in1014.2 mb 0.00 in0.0 mm 0.00 in0.0 mm 0.11 in2.8 mm
05:45 AM 61.0°F16.1°C 59.0°F15.0°C 91% 3.5 mph N5.6 kmh N 5.8 mph9.3 kmh 29.95 in1014.2 mb 0.00 in0.0 mm 0.00 in0.0 mm 0.11 in2.8 mm
05:50 AM 61.0°F16.1°C 59.0°F15.0°C 91% 3.5 mph NNW5.6 kmh NNW 6.0 mph9.7 kmh 29.95 in1014.2 mb 0.00 in0.0 mm 0.00 in0.0 mm 0.11 in2.8 mm
05:55 AM 61.0°F16.1°C 59.0°F15.0°C 91% 3.0 mph NNW4.8 kmh NNW 6.0 mph9.7 kmh 29.95 in1014.2 mb 0.00 in0.0 mm 0.00 in0.0 mm 0.11 in2.8 mm
06:00 AM 61.2°F16.2°C 59.0°F15.0°C 91% 2.5 mph N4.0 kmh N 4.3 mph6.9 kmh 29.95 in1014.2 mb 0.00 in0.0 mm 0.00 in0.0 mm 0.11 in2.8 mm
06:05 AM 61.2°F16.2°C 59.0°F15.0°C 91% 3.6 mph N5.8 kmh N 7.4 mph11.9 kmh 29.95 in1014.2 mb 0.00 in0.0 mm 0.00 in0.0 mm 0.11 in2.8 mm
06:10 AM 61.2°F16.2°C 59.0°F15.0°C 91% 4.3 mph NNW6.9 kmh NNW 7.4 mph11.9 kmh 29.95 in1014.2 mb 0.00 in0.0 mm 0.00 in0.0 mm 0.11 in2.8 mm
06:15 AM 61.3°F16.3°C 59.0°F15.0°C 91% 4.5 mph NW7.2 kmh NW 6.9 mph11.1 kmh 29.95 in1014.2 mb 0.00 in0.0 mm 0.00 in0.0 mm 0.11 in2.8 mm
06:20 AM 61.3°F16.3°C 59.0°F15.0°C 91% 3.9 mph NW6.3 kmh NW 6.3 mph10.1 kmh 29.95 in1014.2 mb 0.00 in0.0 mm 0.00 in0.0 mm 0.11 in2.8 mm
06:25 AM 61.7°F16.5°C 59.0°F15.0°C 90% 4.7 mph NW7.6 kmh NW 12.5 mph20.1 kmh 29.95 in1014.2 mb 0.00 in0.0 mm 0.00 in0.0 mm 0.11 in2.8 mm
06:30 AM 61.7°F16.5°C 59.0°F15.0°C 90% 4.4 mph NW7.1 kmh NW 12.5 mph20.1 kmh 29.95 in1014.2 mb 0.00 in0.0 mm 0.00 in0.0 mm 0.11 in2.8 mm
06:35 AM 61.9°F16.6°C 59.0°F15.0°C 90% 4.5 mph NW7.2 kmh NW 10.3 mph16.6 kmh 29.95 in1014.2 mb 0.00 in0.0 mm 0.00 in0.0 mm 0.11 in2.8 mm
06:40 AM 62.1°F16.7°C 59.0°F15.0°C 90% 5.6 mph NNW9.0 kmh NNW 10.3 mph16.6 kmh 29.95 in1014.2 mb 0.00 in0.0 mm 0.00 in0.0 mm 0.11 in2.8 mm
06:45 AM 62.1°F16.7°C 59.0°F15.0°C 90% 4.6 mph N7.4 kmh N 7.8 mph12.6 kmh 29.95 in1014.2 mb 0.00 in0.0 mm 0.00 in0.0 mm 0.11 in2.8 mm
06:50 AM 62.1°F16.7°C 59.0°F15.0°C 90% 4.6 mph NNW7.4 kmh NNW 7.6 mph12.2 kmh 29.98 in1015.2 mb 0.00 in0.0 mm 0.00 in0.0 mm 0.11 in2.8 mm
06:55 AM 62.2°F16.8°C 59.0°F15.0°C 90% 4.4 mph NW7.1 kmh NW 7.2 mph11.6 kmh 29.98 in1015.2 mb 0.00 in0.0 mm 0.00 in0.0 mm 0.11 in2.8 mm
07:00 AM 62.4°F16.9°C 59.0°F15.0°C 90% 4.3 mph NW6.9 kmh NW 7.4 mph11.9 kmh 29.98 in1015.2 mb 0.00 in0.0 mm 0.00 in0.0 mm 0.11 in2.8 mm
07:05 AM 62.6°F17.0°C 59.0°F15.0°C 89% 4.8 mph NNW7.7 kmh NNW 8.5 mph13.7 kmh 29.98 in1015.2 mb 0.00 in0.0 mm 0.00 in0.0 mm 0.11 in2.8 mm
07:10 AM 62.8°F17.1°C 59.0°F15.0°C 89% 5.0 mph NNW8.0 kmh NNW 8.5 mph13.7 kmh 29.98 in1015.2 mb 0.00 in0.0 mm 0.00 in0.0 mm 0.11 in2.8 mm
07:15 AM 63.1°F17.3°C 60.8°F16.0°C 89% 4.6 mph NNW7.4 kmh NNW 7.6 mph12.2 kmh 29.98 in1015.2 mb 0.00 in0.0 mm 0.00 in0.0 mm 0.11 in2.8 mm
07:20 AM 63.3°F17.4°C 60.8°F16.0°C 89% 3.9 mph NNW6.3 kmh NNW 8.5 mph13.7 kmh 29.98 in1015.2 mb 0.00 in0.0 mm 0.00 in0.0 mm 0.11 in2.8 mm
07:25 AM 63.7°F17.6°C 60.8°F16.0°C 89% 3.8 mph NNW6.1 kmh NNW 8.5 mph13.7 kmh 29.98 in1015.2 mb 0.00 in0.0 mm 0.00 in0.0 mm 0.11 in2.8 mm
07:30 AM 64.0°F17.8°C 60.8°F16.0°C 89% 4.8 mph NNW7.7 kmh NNW 10.1 mph16.3 kmh 29.98 in1015.2 mb 0.00 in0.0 mm 0.00 in0.0 mm 0.11 in2.8 mm
07:35 AM 64.4°F18.0°C 60.8°F16.0°C 88% 6.1 mph NNW9.8 kmh NNW 10.1 mph16.3 kmh 29.98 in1015.2 mb 0.00 in0.0 mm 0.00 in0.0 mm 0.11 in2.8 mm
07:40 AM 64.6°F18.1°C 60.8°F16.0°C 88% 6.1 mph NNW9.8 kmh NNW 10.1 mph16.3 kmh 29.98 in1015.2 mb 0.00 in0.0 mm 0.00 in0.0 mm 0.11 in2.8 mm
07:45 AM 64.4°F18.0°C 60.8°F16.0°C 87% 5.9 mph NW9.5 kmh NW 8.5 mph13.7 kmh 29.98 in1015.2 mb 0.00 in0.0 mm 0.00 in0.0 mm 0.11 in2.8 mm
07:50 AM 64.0°F17.8°C 60.8°F16.0°C 88% 5.1 mph NW8.2 kmh NW 8.5 mph13.7 kmh 29.98 in1015.2 mb 0.00 in0.0 mm 0.00 in0.0 mm 0.11 in2.8 mm
07:55 AM 64.4°F18.0°C 60.8°F16.0°C 87% 6.6 mph NNW10.6 kmh NNW 12.3 mph19.8 kmh 29.98 in1015.2 mb 0.00 in0.0 mm 0.00 in0.0 mm 0.11 in2.8 mm
08:00 AM 64.9°F18.3°C 60.8°F16.0°C 87% 6.3 mph NNW10.1 kmh NNW 12.3 mph19.8 kmh 29.98 in1015.2 mb 0.00 in0.0 mm 0.00 in0.0 mm 0.11 in2.8 mm
08:05 AM 65.1°F18.4°C 60.8°F16.0°C 87% 4.9 mph NNW7.9 kmh NNW 12.3 mph19.8 kmh 29.98 in1015.2 mb 0.00 in0.0 mm 0.00 in0.0 mm 0.11 in2.8 mm
08:10 AM 64.8°F18.2°C 60.8°F16.0°C 87% 4.7 mph NNW7.6 kmh NNW 12.1 mph19.5 kmh 29.98 in1015.2 mb 0.00 in0.0 mm 0.00 in0.0 mm 0.11 in2.8 mm
08:15 AM 64.6°F18.1°C 60.8°F16.0°C 87% 5.3 mph NW8.5 kmh NW 10.7 mph17.2 kmh 29.98 in1015.2 mb 0.00 in0.0 mm 0.00 in0.0 mm 0.11 in2.8 mm
08:20 AM 64.8°F18.2°C 60.8°F16.0°C 87% 6.3 mph NW10.1 kmh NW 11.0 mph17.7 kmh 29.98 in1015.2 mb 0.00 in0.0 mm 0.00 in0.0 mm 0.11 in2.8 mm
08:25 AM 64.6°F18.1°C 60.8°F16.0°C 87% 6.6 mph NW10.6 kmh NW 11.0 mph17.7 kmh 29.98 in1015.2 mb 0.00 in0.0 mm 0.00 in0.0 mm 0.11 in2.8 mm
08:30 AM 64.8°F18.2°C 60.8°F16.0°C 86% 6.3 mph NW10.1 kmh NW 10.5 mph16.9 kmh 29.98 in1015.2 mb 0.00 in0.0 mm 0.00 in0.0 mm 0.11 in2.8 mm
08:35 AM 64.8°F18.2°C 60.8°F16.0°C 86% 6.6 mph NW10.6 kmh NW 12.3 mph19.8 kmh 29.98 in1015.2 mb 0.00 in0.0 mm 0.00 in0.0 mm 0.11 in2.8 mm
08:40 AM 65.1°F18.4°C 60.8°F16.0°C 86% 5.8 mph NNW9.3 kmh NNW 12.3 mph19.8 kmh 29.98 in1015.2 mb 0.00 in0.0 mm 0.00 in0.0 mm 0.11 in2.8 mm
08:45 AM 65.5°F18.6°C 60.8°F16.0°C 86% 5.6 mph N9.0 kmh N 10.5 mph16.9 kmh 29.98 in1015.2 mb 0.00 in0.0 mm 0.00 in0.0 mm 0.11 in2.8 mm
08:50 AM 65.1°F18.4°C 60.8°F16.0°C 86% 6.4 mph N10.3 kmh N 10.5 mph16.9 kmh 29.98 in1015.2 mb 0.00 in0.0 mm 0.00 in0.0 mm 0.11 in2.8 mm
08:55 AM 64.8°F18.2°C 60.8°F16.0°C 87% 7.9 mph NNW12.7 kmh NNW 12.8 mph20.6 kmh 29.98 in1015.2 mb 0.00 in0.0 mm 0.00 in0.0 mm 0.11 in2.8 mm
09:00 AM 64.8°F18.2°C 60.8°F16.0°C 87% 6.5 mph NNW10.5 kmh NNW 12.8 mph20.6 kmh 29.98 in1015.2 mb 0.00 in0.0 mm 0.00 in0.0 mm 0.11 in2.8 mm
09:05 AM 64.4°F18.0°C 60.8°F16.0°C 87% 5.9 mph NNW9.5 kmh NNW 12.3 mph19.8 kmh 30.01 in1016.3 mb 0.00 in0.0 mm 0.00 in0.0 mm 0.11 in2.8 mm
09:10 AM 64.9°F18.3°C 60.8°F16.0°C 87% 6.4 mph NNW10.3 kmh NNW 12.3 mph19.8 kmh 30.01 in1016.3 mb 0.00 in0.0 mm 0.00 in0.0 mm 0.11 in2.8 mm
09:15 AM 65.3°F18.5°C 62.6°F17.0°C 87% 5.8 mph NW9.3 kmh NW 10.5 mph16.9 kmh 30.01 in1016.3 mb 0.00 in0.0 mm 0.00 in0.0 mm 0.11 in2.8 mm
09:20 AM 65.7°F18.7°C 62.6°F17.0°C 87% 5.7 mph NNW9.2 kmh NNW 10.5 mph16.9 kmh 29.98 in1015.2 mb 0.00 in0.0 mm 0.00 in0.0 mm 0.11 in2.8 mm
09:25 AM 65.5°F18.6°C 62.6°F17.0°C 87% 6.0 mph NNW9.7 kmh NNW 10.1 mph16.3 kmh 29.98 in1015.2 mb 0.00 in0.0 mm 0.00 in0.0 mm 0.11 in2.8 mm
09:30 AM 65.1°F18.4°C 60.8°F16.0°C 87% 5.2 mph NW8.4 kmh NW 10.1 mph16.3 kmh 29.98 in1015.2 mb 0.00 in0.0 mm 0.00 in0.0 mm 0.11 in2.8 mm
09:35 AM 64.9°F18.3°C 60.8°F16.0°C 87% 4.7 mph NNW7.6 kmh NNW 10.1 mph16.3 kmh 30.01 in1016.3 mb 0.00 in0.0 mm 0.00 in0.0 mm 0.11 in2.8 mm
09:40 AM 65.1°F18.4°C 60.8°F16.0°C 86% 5.8 mph N9.3 kmh N 10.1 mph16.3 kmh 30.01 in1016.3 mb 0.00 in0.0 mm 0.00 in0.0 mm 0.11 in2.8 mm
09:45 AM 65.7°F18.7°C 60.8°F16.0°C 86% 5.4 mph N8.7 kmh N 9.8 mph15.8 kmh 30.01 in1016.3 mb 0.00 in0.0 mm 0.00 in0.0 mm 0.11 in2.8 mm
09:50 AM 65.8°F18.8°C 60.8°F16.0°C 86% 4.9 mph NNW7.9 kmh NNW 8.5 mph13.7 kmh 30.01 in1016.3 mb 0.00 in0.0 mm 0.00 in0.0 mm 0.11 in2.8 mm
09:55 AM 65.8°F18.8°C 60.8°F16.0°C 86% 5.1 mph NNW8.2 kmh NNW 8.5 mph13.7 kmh 30.01 in1016.3 mb 0.00 in0.0 mm 0.00 in0.0 mm 0.11 in2.8 mm
10:00 AM 66.0°F18.9°C 62.6°F17.0°C 86% 4.4 mph N7.1 kmh N 8.7 mph14.0 kmh 30.01 in1016.3 mb 0.00 in0.0 mm 0.00 in0.0 mm 0.11 in2.8 mm
10:05 AM 65.7°F18.7°C 60.8°F16.0°C 85% 4.6 mph N7.4 kmh N 8.7 mph14.0 kmh 30.01 in1016.3 mb 0.00 in0.0 mm 0.00 in0.0 mm 0.11 in2.8 mm
10:10 AM 65.3°F18.5°C 60.8°F16.0°C 85% 5.8 mph NNW9.3 kmh NNW 12.5 mph20.1 kmh 30.01 in1016.3 mb 0.00 in0.0 mm 0.00 in0.0 mm 0.11 in2.8 mm
10:15 AM 65.3°F18.5°C 60.8°F16.0°C 85% 7.2 mph NW11.6 kmh NW 12.5 mph20.1 kmh 30.01 in1016.3 mb 0.00 in0.0 mm 0.00 in0.0 mm 0.11 in2.8 mm
10:20 AM 65.7°F18.7°C 60.8°F16.0°C 85% 7.1 mph NW11.4 kmh NW 11.0 mph17.7 kmh 30.01 in1016.3 mb 0.00 in0.0 mm 0.00 in0.0 mm 0.11 in2.8 mm
10:25 AM 65.7°F18.7°C 60.8°F16.0°C 84% 5.6 mph NW9.0 kmh NW 10.5 mph16.9 kmh 30.01 in1016.3 mb 0.00 in0.0 mm 0.00 in0.0 mm 0.11 in2.8 mm
10:30 AM 65.8°F18.8°C 60.8°F16.0°C 84% 4.8 mph NNW7.7 kmh NNW 7.6 mph12.2 kmh 30.01 in1016.3 mb 0.00 in0.0 mm 0.00 in0.0 mm 0.11 in2.8 mm
10:35 AM 66.6°F19.2°C 62.6°F17.0°C 84% 4.9 mph NNW7.9 kmh NNW 7.8 mph12.6 kmh 30.01 in1016.3 mb 0.00 in0.0 mm 0.00 in0.0 mm 0.11 in2.8 mm
10:40 AM 66.6°F19.2°C 60.8°F16.0°C 83% 4.8 mph NNW7.7 kmh NNW 8.1 mph13.0 kmh 30.01 in1016.3 mb 0.00 in0.0 mm 0.00 in0.0 mm 0.11 in2.8 mm
10:45 AM 66.6°F19.2°C 62.6°F17.0°C 84% 4.0 mph N6.4 kmh N 8.1 mph13.0 kmh 30.01 in1016.3 mb 0.00 in0.0 mm 0.00 in0.0 mm 0.11 in2.8 mm
10:50 AM 66.4°F19.1°C 60.8°F16.0°C 84% 4.4 mph NNW7.1 kmh NNW 8.1 mph13.0 kmh 30.01 in1016.3 mb 0.00 in0.0 mm 0.00 in0.0 mm 0.11 in2.8 mm
10:55 AM 66.4°F19.1°C 60.8°F16.0°C 84% 5.0 mph NNW8.0 kmh NNW 8.1 mph13.0 kmh 30.01 in1016.3 mb 0.00 in0.0 mm 0.00 in0.0 mm 0.11 in2.8 mm
11:00 AM 67.6°F19.8°C 62.6°F17.0°C 83% 4.9 mph NNW7.9 kmh NNW 7.4 mph11.9 kmh 30.01 in1016.3 mb 0.00 in0.0 mm 0.00 in0.0 mm 0.11 in2.8 mm
11:05 AM 67.3°F19.6°C 62.6°F17.0°C 83% 4.5 mph N7.2 kmh N 6.5 mph10.5 kmh 30.01 in1016.3 mb 0.00 in0.0 mm 0.00 in0.0 mm 0.11 in2.8 mm
11:10 AM 66.6°F19.2°C 60.8°F16.0°C 83% 5.8 mph N9.3 kmh N 9.8 mph15.8 kmh 30.01 in1016.3 mb 0.00 in0.0 mm 0.00 in0.0 mm 0.11 in2.8 mm
11:15 AM 66.4°F19.1°C 60.8°F16.0°C 83% 6.1 mph N9.8 kmh N 10.1 mph16.3 kmh 30.01 in1016.3 mb 0.00 in0.0 mm 0.00 in0.0 mm 0.11 in2.8 mm
11:20 AM 66.6°F19.2°C 60.8°F16.0°C 83% 5.6 mph N9.0 kmh N 10.7 mph17.2 kmh 30.01 in1016.3 mb 0.00 in0.0 mm 0.00 in0.0 mm 0.11 in2.8 mm
11:25 AM 67.5°F19.7°C 62.6°F17.0°C 83% 4.7 mph N7.6 kmh N 10.7 mph17.2 kmh 30.01 in1016.3 mb 0.00 in0.0 mm 0.00 in0.0 mm 0.11 in2.8 mm
11:30 AM 68.0°F20.0°C 62.6°F17.0°C 82% 3.9 mph N6.3 kmh N 6.5 mph10.5 kmh 30.01 in1016.3 mb 0.00 in0.0 mm 0.00 in0.0 mm 0.11 in2.8 mm
11:35 AM 67.6°F19.8°C 62.6°F17.0°C 82% 4.7 mph N7.6 kmh N 8.7 mph14.0 kmh 30.01 in1016.3 mb 0.00 in0.0 mm 0.00 in0.0 mm 0.11 in2.8 mm
11:40 AM 69.1°F20.6°C 62.6°F17.0°C 81% 5.4 mph N8.7 kmh N 10.5 mph16.9 kmh 30.01 in1016.3 mb 0.00 in0.0 mm 0.00 in0.0 mm 0.11 in2.8 mm
11:45 AM 68.5°F20.3°C 62.6°F17.0°C 80% 5.5 mph NNW8.9 kmh NNW 10.5 mph16.9 kmh 30.01 in1016.3 mb 0.00 in0.0 mm 0.00 in0.0 mm 0.11 in2.8 mm
11:50 AM 68.0°F20.0°C 62.6°F17.0°C 80% 6.3 mph N10.1 kmh N 10.5 mph16.9 kmh 30.04 in1017.3 mb 0.00 in0.0 mm 0.00 in0.0 mm 0.11 in2.8 mm
11:55 AM 67.6°F19.8°C 60.8°F16.0°C 81% 7.1 mph N11.4 kmh N 11.9 mph19.2 kmh 30.04 in1017.3 mb 0.00 in0.0 mm 0.00 in0.0 mm 0.11 in2.8 mm
12:00 PM 67.1°F19.5°C 60.8°F16.0°C 81% 7.4 mph N11.9 kmh N 11.9 mph19.2 kmh 30.04 in1017.3 mb 0.00 in0.0 mm 0.00 in0.0 mm 0.11 in2.8 mm
12:05 PM 66.7°F19.3°C 60.8°F16.0°C 82% 6.0 mph N9.7 kmh N 11.9 mph19.2 kmh 30.04 in1017.3 mb 0.00 in0.0 mm 0.00 in0.0 mm 0.11 in2.8 mm
12:10 PM 67.8°F19.9°C 62.6°F17.0°C 82% 4.3 mph N6.9 kmh N 7.4 mph11.9 kmh 30.04 in1017.3 mb 0.00 in0.0 mm 0.00 in0.0 mm 0.11 in2.8 mm
12:15 PM 68.4°F20.2°C 62.6°F17.0°C 81% 4.1 mph N6.6 kmh N 7.2 mph11.6 kmh 30.04 in1017.3 mb 0.00 in0.0 mm 0.00 in0.0 mm 0.11 in2.8 mm
12:20 PM 68.5°F20.3°C 62.6°F17.0°C 80% 6.1 mph N9.8 kmh N 9.6 mph15.4 kmh 30.04 in1017.3 mb 0.00 in0.0 mm 0.00 in0.0 mm 0.11 in2.8 mm
12:25 PM 68.4°F20.2°C 62.6°F17.0°C 80% 6.1 mph N9.8 kmh N 9.6 mph15.4 kmh 30.04 in1017.3 mb 0.00 in0.0 mm 0.00 in0.0 mm 0.11 in2.8 mm
12:30 PM 68.7°F20.4°C 62.6°F17.0°C 80% 5.8 mph NNW9.3 kmh NNW 9.6 mph15.4 kmh 30.04 in1017.3 mb 0.00 in0.0 mm 0.00 in0.0 mm 0.11 in2.8 mm
12:35 PM 68.2°F20.1°C 62.6°F17.0°C 80% 5.4 mph NNW8.7 kmh NNW 7.6 mph12.2 kmh 30.04 in1017.3 mb 0.00 in0.0 mm 0.00 in0.0 mm 0.11 in2.8 mm
12:40 PM 68.0°F20.0°C 62.6°F17.0°C 80% 5.2 mph NNW8.4 kmh NNW 11.0 mph17.7 kmh 30.04 in1017.3 mb 0.00 in0.0 mm 0.00 in0.0 mm 0.11 in2.8 mm
12:45 PM 68.5°F20.3°C 62.6°F17.0°C 80% 6.7 mph NW10.8 kmh NW 11.0 mph17.7 kmh 30.04 in1017.3 mb 0.00 in0.0 mm 0.00 in0.0 mm 0.11 in2.8 mm
12:50 PM 69.8°F21.0°C 62.6°F17.0°C 78% 7.7 mph NW12.4 kmh NW 11.9 mph19.2 kmh 30.04 in1017.3 mb 0.00 in0.0 mm 0.00 in0.0 mm 0.11 in2.8 mm
12:55 PM 69.3°F20.7°C 62.6°F17.0°C 79% 7.6 mph NNW12.2 kmh NNW 11.9 mph19.2 kmh 30.04 in1017.3 mb 0.00 in0.0 mm 0.00 in0.0 mm 0.11 in2.8 mm
01:00 PM 68.4°F20.2°C 62.6°F17.0°C 79% 5.9 mph NNW9.5 kmh NNW 9.6 mph15.4 kmh 30.04 in1017.3 mb 0.00 in0.0 mm 0.00 in0.0 mm 0.11 in2.8 mm
01:05 PM 68.4°F20.2°C 62.6°F17.0°C 79% 5.3 mph NNW8.5 kmh NNW 8.7 mph14.0 kmh 30.04 in1017.3 mb 0.00 in0.0 mm 0.00 in0.0 mm 0.11 in2.8 mm
01:10 PM 68.0°F20.0°C 62.6°F17.0°C 80% 6.1 mph NW9.8 kmh NW 10.5 mph16.9 kmh 30.04 in1017.3 mb 0.00 in0.0 mm 0.00 in0.0 mm 0.11 in2.8 mm
01:15 PM 69.4°F20.8°C 62.6°F17.0°C 79% 6.4 mph NW10.3 kmh NW 10.5 mph16.9 kmh 30.04 in1017.3 mb 0.00 in0.0 mm 0.00 in0.0 mm 0.11 in2.8 mm
01:20 PM 69.1°F20.6°C 62.6°F17.0°C 79% 6.0 mph N9.7 kmh N 8.7 mph14.0 kmh 30.04 in1017.3 mb 0.00 in0.0 mm 0.00 in0.0 mm 0.11 in2.8 mm
01:25 PM 68.9°F20.5°C 62.6°F17.0°C 79% 5.1 mph N8.2 kmh N 8.7 mph14.0 kmh 30.04 in1017.3 mb 0.00 in0.0 mm 0.00 in0.0 mm 0.11 in2.8 mm
01:30 PM 68.9°F20.5°C 62.6°F17.0°C 79% 4.6 mph NW7.4 kmh NW 8.1 mph13.0 kmh 30.04 in1017.3 mb 0.00 in0.0 mm 0.00 in0.0 mm 0.11 in2.8 mm
01:35 PM 68.7°F20.4°C 62.6°F17.0°C 79% 5.6 mph NNW9.0 kmh NNW 8.7 mph14.0 kmh 30.04 in1017.3 mb 0.00 in0.0 mm 0.00 in0.0 mm 0.11 in2.8 mm
01:40 PM 68.7°F20.4°C 60.8°F16.0°C 78% 6.1 mph N9.8 kmh N 8.7 mph14.0 kmh 30.04 in1017.3 mb 0.00 in0.0 mm 0.00 in0.0 mm 0.11 in2.8 mm
01:45 PM 68.7°F20.4°C 60.8°F16.0°C 78% 6.2 mph N10.0 kmh N 7.8 mph12.6 kmh 30.04 in1017.3 mb 0.00 in0.0 mm 0.00 in0.0 mm 0.11 in2.8 mm
01:50 PM 68.2°F20.1°C 60.8°F16.0°C 78% 6.9 mph NNW11.1 kmh NNW 10.7 mph17.2 kmh 30.04 in1017.3 mb 0.00 in0.0 mm 0.00 in0.0 mm 0.11 in2.8 mm
01:55 PM 68.2°F20.1°C 60.8°F16.0°C 78% 6.9 mph NNW11.1 kmh NNW 10.7 mph17.2 kmh 30.04 in1017.3 mb 0.00 in0.0 mm 0.00 in0.0 mm 0.11 in2.8 mm
02:00 PM 70.3°F21.3°C 62.6°F17.0°C 77% 6.0 mph NNW9.7 kmh NNW 8.5 mph13.7 kmh 30.04 in1017.3 mb 0.00 in0.0 mm 0.00 in0.0 mm 0.11 in2.8 mm
02:05 PM 69.3°F20.7°C 62.6°F17.0°C 78% 5.1 mph NNW8.2 kmh NNW 7.8 mph12.6 kmh 30.04 in1017.3 mb 0.00 in0.0 mm 0.00 in0.0 mm 0.11 in2.8 mm
02:10 PM 68.7°F20.4°C 60.8°F16.0°C 78% 5.8 mph N9.3 kmh N 9.8 mph15.8 kmh 30.04 in1017.3 mb 0.00 in0.0 mm 0.00 in0.0 mm 0.11 in2.8 mm
02:15 PM 69.3°F20.7°C 62.6°F17.0°C 78% 6.6 mph N10.6 kmh N 9.8 mph15.8 kmh 30.04 in1017.3 mb 0.00 in0.0 mm 0.00 in0.0 mm 0.11 in2.8 mm
02:20 PM 69.4°F20.8°C 62.6°F17.0°C 78% 5.6 mph N9.0 kmh N 9.4 mph15.1 kmh 30.04 in1017.3 mb 0.00 in0.0 mm 0.00 in0.0 mm 0.11 in2.8 mm
02:25 PM 68.9°F20.5°C 62.6°F17.0°C 78% 5.6 mph NNW9.0 kmh NNW 9.4 mph15.1 kmh 30.04 in1017.3 mb 0.00 in0.0 mm 0.00 in0.0 mm 0.11 in2.8 mm
02:30 PM 68.7°F20.4°C 60.8°F16.0°C 78% 4.4 mph N7.1 kmh N 7.4 mph11.9 kmh 30.04 in1017.3 mb 0.00 in0.0 mm 0.00 in0.0 mm 0.11 in2.8 mm
02:35 PM 68.2°F20.1°C 60.8°F16.0°C 78% 4.2 mph N6.8 kmh N 7.4 mph11.9 kmh 30.07 in1018.3 mb 0.00 in0.0 mm 0.00 in0.0 mm 0.11 in2.8 mm
02:40 PM 67.8°F19.9°C 60.8°F16.0°C 78% 4.5 mph NNW7.2 kmh NNW 7.4 mph11.9 kmh 30.07 in1018.3 mb 0.00 in0.0 mm 0.00 in0.0 mm 0.11 in2.8 mm
02:45 PM 68.0°F20.0°C 60.8°F16.0°C 78% 4.6 mph NNW7.4 kmh NNW 7.8 mph12.6 kmh 30.07 in1018.3 mb 0.00 in0.0 mm 0.00 in0.0 mm 0.11 in2.8 mm
02:50 PM 67.8°F19.9°C 60.8°F16.0°C 78% 4.7 mph N7.6 kmh N 7.8 mph12.6 kmh 30.07 in1018.3 mb 0.00 in0.0 mm 0.00 in0.0 mm 0.11 in2.8 mm
02:55 PM 67.6°F19.8°C 60.8°F16.0°C 78% 4.7 mph N7.6 kmh N 7.6 mph12.2 kmh 30.07 in1018.3 mb 0.00 in0.0 mm 0.00 in0.0 mm 0.11 in2.8 mm
03:00 PM 67.5°F19.7°C 60.8°F16.0°C 79% 4.4 mph N7.1 kmh N 7.6 mph12.2 kmh 30.07 in1018.3 mb 0.00 in0.0 mm 0.00 in0.0 mm 0.11 in2.8 mm
03:05 PM 67.6°F19.8°C 60.8°F16.0°C 79% 3.6 mph N5.8 kmh N 6.5 mph10.5 kmh 30.07 in1018.3 mb 0.00 in0.0 mm 0.00 in0.0 mm 0.11 in2.8 mm
03:10 PM 68.4°F20.2°C 60.8°F16.0°C 78% 4.3 mph N6.9 kmh N 10.3 mph16.6 kmh 30.07 in1018.3 mb 0.00 in0.0 mm 0.00 in0.0 mm 0.11 in2.8 mm
03:15 PM 68.0°F20.0°C 60.8°F16.0°C 78% 4.8 mph NNW7.7 kmh NNW 10.3 mph16.6 kmh 30.07 in1018.3 mb 0.00 in0.0 mm 0.00 in0.0 mm 0.11 in2.8 mm
03:20 PM 67.8°F19.9°C 60.8°F16.0°C 78% 5.5 mph NNW8.9 kmh NNW 8.1 mph13.0 kmh 30.07 in1018.3 mb 0.00 in0.0 mm 0.00 in0.0 mm 0.11 in2.8 mm
03:25 PM 67.5°F19.7°C 60.8°F16.0°C 78% 6.4 mph NNW10.3 kmh NNW 8.1 mph13.0 kmh 30.07 in1018.3 mb 0.00 in0.0 mm 0.00 in0.0 mm 0.11 in2.8 mm
03:30 PM 68.7°F20.4°C 60.8°F16.0°C 78% 5.1 mph N8.2 kmh N 8.1 mph13.0 kmh 30.07 in1018.3 mb 0.00 in0.0 mm 0.00 in0.0 mm 0.11 in2.8 mm
03:35 PM 70.9°F21.6°C 62.6°F17.0°C 76% 5.3 mph NNE8.5 kmh NNE 10.3 mph16.6 kmh 30.07 in1018.3 mb 0.00 in0.0 mm 0.00 in0.0 mm 0.11 in2.8 mm
03:40 PM 69.6°F20.9°C 62.6°F17.0°C 76% 6.6 mph N10.6 kmh N 10.5 mph16.9 kmh 30.07 in1018.3 mb 0.00 in0.0 mm 0.00 in0.0 mm 0.11 in2.8 mm
03:45 PM 68.5°F20.3°C 60.8°F16.0°C 77% 6.7 mph NNW10.8 kmh NNW 10.5 mph16.9 kmh 30.07 in1018.3 mb 0.00 in0.0 mm 0.00 in0.0 mm 0.11 in2.8 mm
03:50 PM 68.9°F20.5°C 62.6°F17.0°C 77% 6.5 mph NNW10.5 kmh NNW 12.3 mph19.8 kmh 30.07 in1018.3 mb 0.00 in0.0 mm 0.00 in0.0 mm 0.11 in2.8 mm
03:55 PM 68.7°F20.4°C 60.8°F16.0°C 76% 6.4 mph N10.3 kmh N 12.3 mph19.8 kmh 30.07 in1018.3 mb 0.00 in0.0 mm 0.00 in0.0 mm 0.11 in2.8 mm
04:00 PM 68.5°F20.3°C 60.8°F16.0°C 76% 7.2 mph N11.6 kmh N 12.3 mph19.8 kmh 30.07 in1018.3 mb 0.00 in0.0 mm 0.00 in0.0 mm 0.11 in2.8 mm
04:05 PM 68.7°F20.4°C 60.8°F16.0°C 76% 8.6 mph NNW13.8 kmh NNW 12.1 mph19.5 kmh 30.04 in1017.3 mb 0.00 in0.0 mm 0.00 in0.0 mm 0.11 in2.8 mm
04:10 PM 68.4°F20.2°C 60.8°F16.0°C 76% 8.9 mph N14.3 kmh N 12.1 mph19.5 kmh 30.04 in1017.3 mb 0.00 in0.0 mm 0.00 in0.0 mm 0.11 in2.8 mm
04:15 PM 68.4°F20.2°C 60.8°F16.0°C 77% 6.9 mph N11.1 kmh N 12.1 mph19.5 kmh 30.04 in1017.3 mb 0.00 in0.0 mm 0.00 in0.0 mm 0.11 in2.8 mm
04:20 PM 68.5°F20.3°C 60.8°F16.0°C 77% 6.5 mph NNW10.5 kmh NNW 13.4 mph21.6 kmh 30.04 in1017.3 mb 0.00 in0.0 mm 0.00 in0.0 mm 0.11 in2.8 mm
04:25 PM 68.2°F20.1°C 60.8°F16.0°C 77% 7.1 mph N11.4 kmh N 13.4 mph21.6 kmh 30.04 in1017.3 mb 0.00 in0.0 mm 0.00 in0.0 mm 0.11 in2.8 mm
04:30 PM 67.8°F19.9°C 60.8°F16.0°C 78% 6.1 mph NNE9.8 kmh NNE 10.3 mph16.6 kmh 30.04 in1017.3 mb 0.00 in0.0 mm 0.00 in0.0 mm 0.11 in2.8 mm
04:35 PM 67.5°F19.7°C 60.8°F16.0°C 78% 6.6 mph N10.6 kmh N 11.0 mph17.7 kmh 30.07 in1018.3 mb 0.00 in0.0 mm 0.00 in0.0 mm 0.11 in2.8 mm
04:40 PM 67.3°F19.6°C 60.8°F16.0°C 78% 6.2 mph N10.0 kmh N 11.0 mph17.7 kmh 30.07 in1018.3 mb 0.00 in0.0 mm 0.00 in0.0 mm 0.11 in2.8 mm
04:45 PM 67.3°F19.6°C 60.8°F16.0°C 78% 5.6 mph N9.0 kmh N 8.7 mph14.0 kmh 30.07 in1018.3 mb 0.00 in0.0 mm 0.00 in0.0 mm 0.11 in2.8 mm
04:50 PM 67.3°F19.6°C 60.8°F16.0°C 78% 6.2 mph N10.0 kmh N 9.6 mph15.4 kmh 30.07 in1018.3 mb 0.00 in0.0 mm 0.00 in0.0 mm 0.11 in2.8 mm
04:55 PM 67.5°F19.7°C 60.8°F16.0°C 78% 7.2 mph N11.6 kmh N 10.1 mph16.3 kmh 30.07 in1018.3 mb 0.00 in0.0 mm 0.00 in0.0 mm 0.11 in2.8 mm
05:00 PM 67.8°F19.9°C 60.8°F16.0°C 77% 8.8 mph N14.2 kmh N 16.1 mph25.9 kmh 30.07 in1018.3 mb 0.00 in0.0 mm 0.00 in0.0 mm 0.11 in2.8 mm
05:05 PM 67.5°F19.7°C 60.8°F16.0°C 77% 7.8 mph N12.6 kmh N 16.1 mph25.9 kmh 30.04 in1017.3 mb 0.00 in0.0 mm 0.00 in0.0 mm 0.11 in2.8 mm
05:10 PM 67.1°F19.5°C 60.8°F16.0°C 77% 7.0 mph N11.3 kmh N 10.5 mph16.9 kmh 30.04 in1017.3 mb 0.00 in0.0 mm 0.00 in0.0 mm 0.11 in2.8 mm
05:15 PM 67.1°F19.5°C 60.8°F16.0°C 78% 7.2 mph N11.6 kmh N 10.5 mph16.9 kmh 30.04 in1017.3 mb 0.00 in0.0 mm 0.00 in0.0 mm 0.11 in2.8 mm
05:20 PM 66.9°F19.4°C 59.0°F15.0°C 78% 7.5 mph N12.1 kmh N 12.8 mph20.6 kmh 30.07 in1018.3 mb 0.00 in0.0 mm 0.00 in0.0 mm 0.11 in2.8 mm
05:25 PM 66.9°F19.4°C 59.0°F15.0°C 78% 7.8 mph N12.6 kmh N 12.8 mph20.6 kmh 30.07 in1018.3 mb 0.00 in0.0 mm 0.00 in0.0 mm 0.11 in2.8 mm
05:30 PM 66.7°F19.3°C 59.0°F15.0°C 78% 7.2 mph N11.6 kmh N 12.3 mph19.8 kmh 30.07 in1018.3 mb 0.00 in0.0 mm 0.00 in0.0 mm 0.11 in2.8 mm
05:35 PM 66.7°F19.3°C 59.0°F15.0°C 78% 6.3 mph N10.1 kmh N 9.2 mph14.8 kmh 30.07 in1018.3 mb 0.00 in0.0 mm 0.00 in0.0 mm 0.11 in2.8 mm
05:40 PM 66.4°F19.1°C 59.0°F15.0°C 78% 6.0 mph N9.7 kmh N 8.1 mph13.0 kmh 30.07 in1018.3 mb 0.00 in0.0 mm 0.00 in0.0 mm 0.11 in2.8 mm
05:45 PM 66.0°F18.9°C 59.0°F15.0°C 79% 5.9 mph N9.5 kmh N 8.9 mph14.3 kmh 30.07 in1018.3 mb 0.00 in0.0 mm 0.00 in0.0 mm 0.11 in2.8 mm
05:50 PM 66.0°F18.9°C 59.0°F15.0°C 79% 5.4 mph N8.7 kmh N 8.9 mph14.3 kmh 30.07 in1018.3 mb 0.00 in0.0 mm 0.00 in0.0 mm 0.11 in2.8 mm
05:55 PM 65.8°F18.8°C 59.0°F15.0°C 79% 4.7 mph N7.6 kmh N 8.5 mph13.7 kmh 30.07 in1018.3 mb 0.00 in0.0 mm 0.00 in0.0 mm 0.11 in2.8 mm
06:00 PM 65.8°F18.8°C 59.0°F15.0°C 79% 4.9 mph N7.9 kmh N 8.1 mph13.0 kmh 30.07 in1018.3 mb 0.00 in0.0 mm 0.00 in0.0 mm 0.11 in2.8 mm
06:05 PM 65.8°F18.8°C 59.0°F15.0°C 79% 5.1 mph N8.2 kmh N 8.1 mph13.0 kmh 30.07 in1018.3 mb 0.00 in0.0 mm 0.00 in0.0 mm 0.11 in2.8 mm
06:10 PM 66.0°F18.9°C 59.0°F15.0°C 79% 5.4 mph N8.7 kmh N 7.6 mph12.2 kmh 30.07 in1018.3 mb 0.00 in0.0 mm 0.00 in0.0 mm 0.11 in2.8 mm
06:15 PM 66.0°F18.9°C 59.0°F15.0°C 79% 5.6 mph N9.0 kmh N 9.8 mph15.8 kmh 30.07 in1018.3 mb 0.00 in0.0 mm 0.00 in0.0 mm 0.11 in2.8 mm
06:20 PM 66.0°F18.9°C 59.0°F15.0°C 79% 5.2 mph N8.4 kmh N 10.7 mph17.2 kmh 30.07 in1018.3 mb 0.00 in0.0 mm 0.00 in0.0 mm 0.11 in2.8 mm
06:25 PM 66.2°F19.0°C 59.0°F15.0°C 78% 4.5 mph N7.2 kmh N 10.7 mph17.2 kmh 30.07 in1018.3 mb 0.00 in0.0 mm 0.00 in0.0 mm 0.11 in2.8 mm
06:30 PM 66.2°F19.0°C 59.0°F15.0°C 78% 5.1 mph N8.2 kmh N 8.9 mph14.3 kmh 30.07 in1018.3 mb 0.00 in0.0 mm 0.00 in0.0 mm 0.11 in2.8 mm
06:35 PM 66.2°F19.0°C 59.0°F15.0°C 78% 5.9 mph N9.5 kmh N 10.3 mph16.6 kmh 30.07 in1018.3 mb 0.00 in0.0 mm 0.00 in0.0 mm 0.11 in2.8 mm
06:40 PM 66.0°F18.9°C 59.0°F15.0°C 79% 6.1 mph N9.8 kmh N 10.3 mph16.6 kmh 30.07 in1018.3 mb 0.00 in0.0 mm 0.00 in0.0 mm 0.11 in2.8 mm
06:45 PM 65.7°F18.7°C 59.0°F15.0°C 79% 6.2 mph N10.0 kmh N 13.6 mph21.9 kmh 30.07 in1018.3 mb 0.00 in0.0 mm 0.00 in0.0 mm 0.11 in2.8 mm
06:50 PM 65.5°F18.6°C 59.0°F15.0°C 79% 5.8 mph N9.3 kmh N 13.6 mph21.9 kmh 30.09 in1019.0 mb 0.00 in0.0 mm 0.00 in0.0 mm 0.11 in2.8 mm
06:55 PM 65.5°F18.6°C 59.0°F15.0°C 79% 4.6 mph N7.4 kmh N 6.0 mph9.7 kmh 30.09 in1019.0 mb 0.00 in0.0 mm 0.00 in0.0 mm 0.11 in2.8 mm
07:00 PM 65.5°F18.6°C 59.0°F15.0°C 79% 5.0 mph N8.0 kmh N 8.1 mph13.0 kmh 30.09 in1019.0 mb 0.00 in0.0 mm 0.00 in0.0 mm 0.11 in2.8 mm
07:05 PM 65.5°F18.6°C 59.0°F15.0°C 80% 4.4 mph N7.1 kmh N 8.1 mph13.0 kmh 30.07 in1018.3 mb 0.00 in0.0 mm 0.00 in0.0 mm 0.11 in2.8 mm
07:10 PM 65.3°F18.5°C 59.0°F15.0°C 80% 3.2 mph N5.1 kmh N 5.8 mph9.3 kmh 30.07 in1018.3 mb 0.00 in0.0 mm 0.00 in0.0 mm 0.11 in2.8 mm
07:15 PM 65.3°F18.5°C 59.0°F15.0°C 80% 3.6 mph N5.8 kmh N 6.0 mph9.7 kmh 30.07 in1018.3 mb 0.00 in0.0 mm 0.00 in0.0 mm 0.11 in2.8 mm
07:20 PM 64.9°F18.3°C 59.0°F15.0°C 80% 4.6 mph N7.4 kmh N 7.8 mph12.6 kmh 30.07 in1018.3 mb 0.00 in0.0 mm 0.00 in0.0 mm 0.11 in2.8 mm
07:25 PM 64.8°F18.2°C 59.0°F15.0°C 80% 4.5 mph N7.2 kmh N 7.8 mph12.6 kmh 30.07 in1018.3 mb 0.00 in0.0 mm 0.00 in0.0 mm 0.11 in2.8 mm
07:30 PM 64.8°F18.2°C 59.0°F15.0°C 80% 3.5 mph NNW5.6 kmh NNW 5.4 mph8.7 kmh 30.07 in1018.3 mb 0.00 in0.0 mm 0.00 in0.0 mm 0.11 in2.8 mm
07:35 PM 64.6°F18.1°C 59.0°F15.0°C 80% 3.7 mph N6.0 kmh N 6.0 mph9.7 kmh 30.07 in1018.3 mb 0.00 in0.0 mm 0.00 in0.0 mm 0.11 in2.8 mm
07:40 PM 64.6°F18.1°C 59.0°F15.0°C 81% 3.6 mph N5.8 kmh N 6.0 mph9.7 kmh 30.07 in1018.3 mb 0.00 in0.0 mm 0.00 in0.0 mm 0.11 in2.8 mm
07:45 PM 64.2°F17.9°C 59.0°F15.0°C 81% 3.6 mph N5.8 kmh N 6.5 mph10.5 kmh 30.07 in1018.3 mb 0.00 in0.0 mm 0.00 in0.0 mm 0.11 in2.8 mm
07:50 PM 64.2°F17.9°C 59.0°F15.0°C 81% 4.0 mph N6.4 kmh N 6.5 mph10.5 kmh 30.09 in1019.0 mb 0.00 in0.0 mm 0.00 in0.0 mm 0.11 in2.8 mm
07:55 PM 63.9°F17.7°C 57.2°F14.0°C 81% 3.7 mph N6.0 kmh N 5.8 mph9.3 kmh 30.09 in1019.0 mb 0.00 in0.0 mm 0.00 in0.0 mm 0.11 in2.8 mm
08:00 PM 63.7°F17.6°C 57.2°F14.0°C 81% 3.9 mph N6.3 kmh N 5.8 mph9.3 kmh 30.09 in1019.0 mb 0.00 in0.0 mm 0.00 in0.0 mm 0.11 in2.8 mm
08:05 PM 63.7°F17.6°C 57.2°F14.0°C 81% 3.3 mph N5.3 kmh N 5.8 mph9.3 kmh 30.09 in1019.0 mb 0.00 in0.0 mm 0.00 in0.0 mm 0.11 in2.8 mm
08:10 PM 63.5°F17.5°C 59.0°F15.0°C 82% 3.0 mph NNW4.8 kmh NNW 5.8 mph9.3 kmh 30.09 in1019.0 mb 0.00 in0.0 mm 0.00 in0.0 mm 0.11 in2.8 mm
08:15 PM 63.5°F17.5°C 59.0°F15.0°C 82% 2.8 mph NNW4.5 kmh NNW 5.8 mph9.3 kmh 30.09 in1019.0 mb 0.00 in0.0 mm 0.00 in0.0 mm 0.11 in2.8 mm
08:20 PM 63.5°F17.5°C 59.0°F15.0°C 82% 2.5 mph N4.0 kmh N 5.6 mph9.0 kmh 30.09 in1019.0 mb 0.00 in0.0 mm 0.00 in0.0 mm 0.11 in2.8 mm
08:25 PM 63.5°F17.5°C 59.0°F15.0°C 82% 2.4 mph N3.9 kmh N 5.6 mph9.0 kmh 30.09 in1019.0 mb 0.00 in0.0 mm 0.00 in0.0 mm 0.11 in2.8 mm
08:30 PM 63.5°F17.5°C 59.0°F15.0°C 82% 2.5 mph NNW4.0 kmh NNW 4.9 mph7.9 kmh 30.09 in1019.0 mb 0.00 in0.0 mm 0.00 in0.0 mm 0.11 in2.8 mm
08:35 PM 63.5°F17.5°C 59.0°F15.0°C 82% 2.6 mph NNW4.2 kmh NNW 4.9 mph7.9 kmh 30.09 in1019.0 mb 0.00 in0.0 mm 0.00 in0.0 mm 0.11 in2.8 mm
08:40 PM 63.3°F17.4°C 57.2°F14.0°C 82% 3.1 mph NW5.0 kmh NW 6.3 mph10.1 kmh 30.09 in1019.0 mb 0.00 in0.0 mm 0.00 in0.0 mm 0.11 in2.8 mm
08:45 PM 63.3°F17.4°C 57.2°F14.0°C 83% 3.0 mph NW4.8 kmh NW 6.3 mph10.1 kmh 30.09 in1019.0 mb 0.00 in0.0 mm 0.00 in0.0 mm 0.11 in2.8 mm
08:50 PM 63.3°F17.4°C 57.2°F14.0°C 83% 2.3 mph NW3.7 kmh NW 3.1 mph5.0 kmh 30.09 in1019.0 mb 0.00 in0.0 mm 0.00 in0.0 mm 0.11 in2.8 mm
08:55 PM 63.3°F17.4°C 57.2°F14.0°C 83% 2.3 mph NNW3.7 kmh NNW 3.1 mph5.0 kmh 30.09 in1019.0 mb 0.00 in0.0 mm 0.00 in0.0 mm 0.11 in2.8 mm
09:00 PM 63.3°F17.4°C 57.2°F14.0°C 83% 2.0 mph NNW3.2 kmh NNW 3.8 mph6.1 kmh 30.09 in1019.0 mb 0.00 in0.0 mm 0.00 in0.0 mm 0.11 in2.8 mm
09:05 PM 63.1°F17.3°C 59.0°F15.0°C 84% 2.7 mph N4.3 kmh N 4.3 mph6.9 kmh 30.09 in1019.0 mb 0.00 in0.0 mm 0.00 in0.0 mm 0.11 in2.8 mm
09:10 PM 63.1°F17.3°C 59.0°F15.0°C 84% 3.4 mph N5.5 kmh N 5.8 mph9.3 kmh 30.09 in1019.0 mb 0.00 in0.0 mm 0.00 in0.0 mm 0.11 in2.8 mm
09:15 PM 63.0°F17.2°C 59.0°F15.0°C 84% 3.2 mph N5.1 kmh N 5.8 mph9.3 kmh 30.09 in1019.0 mb 0.00 in0.0 mm 0.00 in0.0 mm 0.11 in2.8 mm
09:20 PM 63.0°F17.2°C 59.0°F15.0°C 84% 2.9 mph N4.7 kmh N 4.3 mph6.9 kmh 30.09 in1019.0 mb 0.00 in0.0 mm 0.00 in0.0 mm 0.11 in2.8 mm
09:25 PM 63.0°F17.2°C 59.0°F15.0°C 84% 3.0 mph N4.8 kmh N 3.8 mph6.1 kmh 30.09 in1019.0 mb 0.00 in0.0 mm 0.00 in0.0 mm 0.11 in2.8 mm
09:30 PM 62.8°F17.1°C 57.2°F14.0°C 84% 3.1 mph N5.0 kmh N 4.0 mph6.4 kmh 30.09 in1019.0 mb 0.00 in0.0 mm 0.00 in0.0 mm 0.11 in2.8 mm
09:35 PM 62.8°F17.1°C 57.2°F14.0°C 84% 3.3 mph N5.3 kmh N 4.0 mph6.4 kmh 30.09 in1019.0 mb 0.00 in0.0 mm 0.00 in0.0 mm 0.11 in2.8 mm
09:40 PM 62.8°F17.1°C 57.2°F14.0°C 84% 3.5 mph N5.6 kmh N 4.3 mph6.9 kmh 30.09 in1019.0 mb 0.00 in0.0 mm 0.00 in0.0 mm 0.11 in2.8 mm
09:45 PM 62.6°F17.0°C 57.2°F14.0°C 84% 3.5 mph N5.6 kmh N 4.3 mph6.9 kmh 30.09 in1019.0 mb 0.00 in0.0 mm 0.00 in0.0 mm 0.11 in2.8 mm
09:50 PM 62.4°F16.9°C 59.0°F15.0°C 85% 3.3 mph N5.3 kmh N 4.0 mph6.4 kmh 30.09 in1019.0 mb 0.00 in0.0 mm 0.00 in0.0 mm 0.11 in2.8 mm
09:55 PM 62.2°F16.8°C 57.2°F14.0°C 85% 3.3 mph N5.3 kmh N 5.4 mph8.7 kmh 30.09 in1019.0 mb 0.00 in0.0 mm 0.00 in0.0 mm 0.11 in2.8 mm
10:00 PM 62.1°F16.7°C 57.2°F14.0°C 85% 3.3 mph N5.3 kmh N 5.4 mph8.7 kmh 30.09 in1019.0 mb 0.00 in0.0 mm 0.00 in0.0 mm 0.11 in2.8 mm
10:05 PM 62.1°F16.7°C 57.2°F14.0°C 85% 3.1 mph N5.0 kmh N 4.7 mph7.6 kmh 30.09 in1019.0 mb 0.00 in0.0 mm 0.00 in0.0 mm 0.11 in2.8 mm
10:10 PM 62.1°F16.7°C 57.2°F14.0°C 85% 3.0 mph NNE4.8 kmh NNE 6.3 mph10.1 kmh 30.09 in1019.0 mb 0.00 in0.0 mm 0.00 in0.0 mm 0.11 in2.8 mm
10:15 PM 62.1°F16.7°C 57.2°F14.0°C 85% 4.0 mph N6.4 kmh N 7.2 mph11.6 kmh 30.09 in1019.0 mb 0.00 in0.0 mm 0.00 in0.0 mm 0.11 in2.8 mm
10:20 PM 62.1°F16.7°C 57.2°F14.0°C 85% 5.4 mph N8.7 kmh N 8.7 mph14.0 kmh 30.09 in1019.0 mb 0.00 in0.0 mm 0.00 in0.0 mm 0.11 in2.8 mm
10:25 PM 62.1°F16.7°C 57.2°F14.0°C 85% 4.5 mph N7.2 kmh N 8.7 mph14.0 kmh 30.09 in1019.0 mb 0.00 in0.0 mm 0.00 in0.0 mm 0.11 in2.8 mm
10:30 PM 61.9°F16.6°C 57.2°F14.0°C 85% 3.6 mph NNW5.8 kmh NNW 8.7 mph14.0 kmh 30.09 in1019.0 mb 0.00 in0.0 mm 0.00 in0.0 mm 0.11 in2.8 mm
10:35 PM 61.9°F16.6°C 57.2°F14.0°C 85% 3.8 mph N6.1 kmh N 6.5 mph10.5 kmh 30.09 in1019.0 mb 0.00 in0.0 mm 0.00 in0.0 mm 0.11 in2.8 mm
10:40 PM 61.9°F16.6°C 57.2°F14.0°C 85% 4.2 mph N6.8 kmh N 6.5 mph10.5 kmh 30.09 in1019.0 mb 0.00 in0.0 mm 0.00 in0.0 mm 0.11 in2.8 mm
10:45 PM 61.7°F16.5°C 57.2°F14.0°C 85% 3.8 mph N6.1 kmh N 6.5 mph10.5 kmh 30.09 in1019.0 mb 0.00 in0.0 mm 0.00 in0.0 mm 0.11 in2.8 mm
10:50 PM 61.7°F16.5°C 57.2°F14.0°C 85% 3.7 mph N6.0 kmh N 4.7 mph7.6 kmh 30.09 in1019.0 mb 0.00 in0.0 mm 0.00 in0.0 mm 0.11 in2.8 mm
10:55 PM 61.3°F16.3°C 57.2°F14.0°C 85% 3.3 mph N5.3 kmh N 4.7 mph7.6 kmh 30.09 in1019.0 mb 0.00 in0.0 mm 0.00 in0.0 mm 0.11 in2.8 mm
11:00 PM 61.3°F16.3°C 57.2°F14.0°C 85% 3.7 mph N6.0 kmh N 6.5 mph10.5 kmh 30.09 in1019.0 mb 0.00 in0.0 mm 0.00 in0.0 mm 0.11 in2.8 mm
11:05 PM 61.0°F16.1°C 57.2°F14.0°C 85% 4.2 mph NNW6.8 kmh NNW 7.4 mph11.9 kmh 30.09 in1019.0 mb 0.00 in0.0 mm 0.00 in0.0 mm 0.11 in2.8 mm
11:10 PM 61.0°F16.1°C 57.2°F14.0°C 85% 4.5 mph NNW7.2 kmh NNW 8.1 mph13.0 kmh 30.09 in1019.0 mb 0.00 in0.0 mm 0.00 in0.0 mm 0.11 in2.8 mm
11:15 PM 61.0°F16.1°C 57.2°F14.0°C 85% 5.1 mph N8.2 kmh N 8.1 mph13.0 kmh 30.09 in1019.0 mb 0.00 in0.0 mm 0.00 in0.0 mm 0.11 in2.8 mm
11:20 PM 60.8°F16.0°C 57.2°F14.0°C 85% 4.4 mph N7.1 kmh N 8.1 mph13.0 kmh 30.09 in1019.0 mb 0.00 in0.0 mm 0.00 in0.0 mm 0.11 in2.8 mm
11:25 PM 60.8°F16.0°C 57.2°F14.0°C 85% 3.4 mph NNW5.5 kmh NNW 5.4 mph8.7 kmh 30.09 in1019.0 mb 0.00 in0.0 mm 0.00 in0.0 mm 0.11 in2.8 mm
11:30 PM 60.8°F16.0°C 57.2°F14.0°C 85% 3.1 mph NNW5.0 kmh NNW 5.4 mph8.7 kmh 30.09 in1019.0 mb 0.00 in0.0 mm 0.00 in0.0 mm 0.11 in2.8 mm
11:35 PM 60.8°F16.0°C 57.2°F14.0°C 85% 3.2 mph NNW5.1 kmh NNW 4.7 mph7.6 kmh 30.09 in1019.0 mb 0.00 in0.0 mm 0.00 in0.0 mm 0.11 in2.8 mm
11:40 PM 61.0°F16.1°C 57.2°F14.0°C 85% 3.5 mph N5.6 kmh N 6.5 mph10.5 kmh 30.09 in1019.0 mb 0.00 in0.0 mm 0.00 in0.0 mm 0.11 in2.8 mm
11:45 PM 61.0°F16.1°C 57.2°F14.0°C 85% 3.9 mph N6.3 kmh N 6.5 mph10.5 kmh 30.09 in1019.0 mb 0.00 in0.0 mm 0.00 in0.0 mm 0.11 in2.8 mm
11:50 PM 60.8°F16.0°C 57.2°F14.0°C 86% 3.3 mph N5.3 kmh N 4.9 mph7.9 kmh 30.09 in1019.0 mb 0.00 in0.0 mm 0.00 in0.0 mm 0.11 in2.8 mm
11:55 PM 60.8°F16.0°C 57.2°F14.0°C 86% 3.2 mph N5.1 kmh N 4.5 mph7.2 kmh 30.09 in1019.0 mb 0.00 in0.0 mm 0.00 in0.0 mm 0.11 in2.8 mm